ADDS METAR Data INFO
IDs: Format: Raw Decoded Include TAF

Data at: 0512 UTC 21 Feb 2018

KDKB 201515Z AUTO 17009KT M1/4SM FG OVC003 11/11 A2984 RMK AO2 T01090109
KDKB 201455Z AUTO 17009KT M1/4SM FG OVC003 10/10 A2984 RMK AO2 60007 T00990099
KDKB 201435Z AUTO 00000KT M1/4SM FG OVC003 09/09 A2986 RMK AO2 T00870087
KDKB 201415Z AUTO 23005KT 1/2SM -DZ OVC003 11/11 A2986 RMK AO2 T01130113
KDKB 201355Z AUTO 21011G16KT 190V260 1/2SM RA OVC003 12/12 A2986 RMK AO2 P0001 T01170117
KDKB 201335Z AUTO 18007KT M1/4SM -DZ OVC003 08/08 A2984 RMK AO2 P0001 T00840084
KDKB 201315Z AUTO 19006KT M1/4SM FG BKN003 OVC016 09/09 A2983 RMK AO2 P0001 T00870086
KDKB 201255Z AUTO 19010KT 1/4SM FG OVC003 09/09 A2983 RMK AO2 P0006 T00910090
KDKB 201235Z AUTO 20008KT 1/2SM RA BKN003 BKN023 OVC029 10/10 A2983 RMK AO2 P0006 T01030103
KDKB 201215Z AUTO 22006KT 1/2SM RA OVC003 10/10 A2982 RMK AO2 P0001 T01010101
KDKB 201155Z AUTO 22008KT 3/4SM RA BKN001 OVC012 10/10 A2982 RMK AO2 LTG DSNT S P0004 60047 70095 T00950095 10110 20062
KDKB 201135Z AUTO 20010KT 1/2SM RA BKN003 OVC012 09/09 A2982 RMK AO2 P0002 T00870086
KDKB 201115Z AUTO 20010KT 1/2SM RA OVC003 08/08 A2982 RMK AO2 P0001 T00770077
KDKB 201055Z AUTO 20006KT 1/2SM -RA OVC005 07/07 A2981 RMK AO2 P0002 T00650065
KDKB 201035Z AUTO 18006KT 3/4SM -RA OVC005 07/07 A2980 RMK AO2 P0001 T00690069
KDKB 201015Z AUTO 16006KT 1/2SM -DZ OVC009 07/07 A2979 RMK AO2 T00700070
KDKB 200955Z AUTO 17003KT 1/2SM -RA OVC013 07/07 A2979 RMK AO2 LTG DSNT S P0011 T00690069
KDKB 200935Z AUTO 23003KT 1 3/4SM RA BKN013 OVC020 08/08 A2982 RMK AO2 P0007 T00820082
KDKB 200915Z AUTO 24005KT 4SM RA SCT004 OVC021 09/09 A2982 RMK AO2 P0004 T00920091
KDKB 200855Z AUTO 27007KT 2 1/2SM RA OVC002 09/09 A2982 RMK AO2 P0012 60029 T00940094
KDKB 200835Z AUTO 26007KT 1/2SM -RA OVC002 10/10 A2982 RMK AO2 P0006 T01040104
KDKB 200815Z AUTO 22007KT 1/4SM RA OVC002 11/11 A2982 RMK AO2 P0003 T01050105
KDKB 200755Z AUTO 21009KT 3/4SM -RA OVC004 11/11 A2982 RMK AO2 P0013 T01070107
KDKB 200735Z AUTO 21008KT 1/4SM RA OVC002 10/10 A2982 RMK AO2 P0006 T01000099
KDKB 200715Z AUTO 20010KT 1/4SM RA OVC002 10/10 A2981 RMK AO2 LTG DSNT SW P0001 T00950095
KDKB 200655Z AUTO 19014KT 1/4SM -RA OVC002 10/10 A2980 RMK AO2 P0004 T00980097
KDKB 200635Z AUTO 19013KT 1/4SM -RA OVC002 10/10 A2980 RMK AO2 P0003 T00950095
KDKB 200615Z AUTO 19010KT 1/4SM RA OVC002 09/09 A2980 RMK AO2 P0001 T00900089
KDKB 200555Z AUTO 17011KT 1/4SM RA OVC004 09/09 A2979 RMK AO2 P0009 60037 T00920092 10106 20068 401060013
KDKB 200535Z AUTO 18010KT 1/4SM RA OVC004 09/09 A2981 RMK AO2 P0006 T00850085
KDKB 200515Z AUTO 18009KT 1/4SM RA OVC004 09/09 A2981 RMK AO2 P0003 T00940093
KDKB 200455Z AUTO 19009KT 1/4SM RA OVC004 09/09 A2981 RMK AO2 LTG DSNT E AND S P0012 T00900090
KDKB 200435Z AUTO 19012KT 1/4SM RA OVC002 11/11 A2981 RMK AO2 LTG DSNT SE P0008 T01050105
KDKB 200415Z AUTO 18014G18KT 1/4SM RA OVC002 09/08 A2980 RMK AO2 LTG DSNT E AND SE P0003 T00850083
KDKB 200355Z AUTO 19010KT 1/4SM RA OVC002 08/08 A2981 RMK AO2 LTG DSNT SE P0009 T00820081
KDKB 200335Z AUTO 18011KT 1/4SM RA OVC002 09/09 A2980 RMK AO2 LTG DSNT SE AND S P0003 T00860086
KDKB 200315Z AUTO 18008KT 1/4SM RA OVC002 08/08 A2980 RMK AO2 LTG DSNT SE AND S P0001 T00760075
KDKB 200255Z AUTO 17011KT 1/4SM +VCTSRA OVC002 08/08 A2980 RMK AO2 LTG DSNT SE AND S P0006 60006 T00810081
KDKB 200235Z AUTO 18012KT 1/4SM -VCTSRA OVC002 08/08 A2980 RMK AO2 LTG DSNT SE THRU SW T00760075
KDKB 200215Z AUTO 18013KT 1/4SM +DZ OVC002 08/08 A2980 RMK AO2 LTG DSNT SE T00770076
KDKB 200155Z AUTO 17010KT 1/4SM -RA OVC002 08/08 A2980 RMK AO2 LTG DSNT S T00760076
KDKB 200135Z AUTO 18012KT 1/4SM +DZ OVC002 07/07 A2980 RMK AO2 LTG DSNT SW T00730072
KDKB 200115Z AUTO 17012KT 1/4SM -RA OVC002 07/07 A2980 RMK AO2 T00740073
KDKB 200055Z AUTO 18010KT 1/4SM RA OVC002 07/07 A2981 RMK AO2 T00720072
KDKB 200035Z AUTO 18012KT 1/4SM -RA OVC002 08/07 A2980 RMK AO2 T00750074
KDKB 200015Z AUTO 19014KT 1/4SM RA OVC002 08/08 A2981 RMK AO2 T00800079
KDKB 192355Z AUTO 18011KT 1/4SM -RA OVC002 08/08 A2980 RMK AO2 P0001 60002 T00750075 10077 20048
KDKB 192335Z AUTO 19012KT M1/4SM DZ OVC002 08/08 A2979 RMK AO2 T00760075
KDKB 192315Z AUTO 19012KT M1/4SM -RA OVC002 07/07 A2979 RMK AO2 LTG DSNT SW T00740073
KDKB 192255Z AUTO 18014KT M1/4SM -RA OVC002 08/07 A2978 RMK AO2 T00750074
KDKB 192235Z AUTO 18014KT M1/4SM -RA OVC002 07/07 A2977 RMK AO2 T00700070
KDKB 192215Z AUTO 19011KT M1/4SM -RA OVC002 07/07 A2978 RMK AO2 LTG DSNT NW T00680067
KDKB 192155Z AUTO 19013KT M1/4SM -RA OVC002 08/08 A2977 RMK AO2 T00760075
KDKB 192135Z AUTO 19014KT M1/4SM -RA OVC002 07/07 A2977 RMK AO2 LTG DSNT W T00700069
KDKB 192115Z AUTO 18013KT M1/4SM DZ OVC002 07/07 A2976 RMK AO2 T00670067
KDKB 192055Z AUTO 18011KT M1/4SM RA OVC002 06/06 A2976 RMK AO2 60001 T00610060
KDKB 192035Z AUTO 18010KT M1/4SM -RA OVC002 06/05 A2976 RMK AO2 T00550054
KDKB 192015Z AUTO 18010KT M1/4SM RA OVC002 06/06 A2975 RMK AO2 T00610060
KDKB 191955Z AUTO 17010KT M1/4SM -RA OVC002 05/05 A2974 RMK AO2 LTG DSNT S T00500048
KDKB 191935Z AUTO 17008KT M1/4SM -RA OVC002 05/05 A2973 RMK AO2 T00520052
KDKB 191915Z AUTO 17009KT M1/4SM -RA OVC002 06/06 A2974 RMK AO2 T00550055
KDKB 191855Z AUTO 15010KT M1/4SM -RA OVC002 05/05 A2974 RMK AO2 P0001 T00500050
KDKB 191835Z AUTO 14008KT M1/4SM -RA OVC002 05/05 A2975 RMK AO2 P0001 T00520051
KDKB 191815Z AUTO 15008KT 1/4SM -RA OVC002 06/05 A2976 RMK AO2 T00550054
KDKB 191755Z AUTO 13006KT 1/4SM DZ OVC004 05/05 A2978 RMK AO2 P0002 60009 T00460046 10046 20020
KDKB 191735Z AUTO 12006KT 1/2SM DZ OVC004 04/04 A2978 RMK AO2 P0001 T00440043
KDKB 191715Z AUTO 12008KT 3/4SM RA BKN004 BKN008 OVC013 04/04 A2979 RMK AO2 T00440042